»·PEaware :: AAL1414 KAUS-KDFW

AAL1414 :: KAUS-KDFW

FLIGHT INFORMATION

Flight Status: Arrived
Operator:
American Airlines
More flights by this operator :: More flights under this callsign
Pilot: Drew Leevy (13237)
Aircraft: MCDONNELL-DOUGLAS MD-82
(MD82)
More flights by this aircraft type
Origin: KAUS Austin Bergstrom Intl
United States
Destination: KDFW Dallas-Ft Worth Intl
United States
More flights between these airports :: More routes between these airports
Route: ELOEL1 FORSS GUTTZ SOCKK3
File this flight plan on PilotEdge
Remarks:
Altitude:
(Current/Filed)
23,000ft
Speed:
(Current/Filed)
440kts
Departed: 22-Apr-17 10:55 AM
Arrived: 22-Apr-17 11:33 AM
Distance/Time
Traveled:
165nm/0:38
Distance/Time
To Go:
Arrived

Flight Plot

Page will automatically refresh every two minutes.

Flight plan parsing failed; only flown route is shown


Map Options




Map Legend


Flown Route
Filed Route
Departure Airport
Arrival Airport
Navaid (VOR, NDB)
Fix

Horizontal Profiles

Position Reports

Time Latitude Longitude Heading Altitude Ground
Speed
22-Apr-17 10:44 30.201249 -97.667167 1 547ft 0kts
22-Apr-17 10:45 30.201249 -97.667167 1 547ft 0kts
22-Apr-17 10:46 30.201249 -97.667167 1 547ft 0kts
22-Apr-17 10:47 30.200843 -97.667176 0 547ft 3kts
22-Apr-17 10:48 30.200775 -97.667178 0 547ft 0kts
22-Apr-17 10:49 30.200775 -97.667178 0 547ft 0kts
22-Apr-17 10:50 30.200848 -97.668393 285 547ft 17kts
22-Apr-17 10:51 30.200965 -97.672733 266 547ft 8kts
22-Apr-17 10:52 30.197582 -97.673223 177 547ft 19kts
22-Apr-17 10:53 30.193469 -97.673120 178 547ft 19kts
22-Apr-17 10:54 30.186985 -97.672958 178 547ft 21kts
22-Apr-17 10:55 30.180525 -97.673061 221 547ft 20kts
22-Apr-17 10:56 30.180125 -97.678057 268 547ft 13kts
22-Apr-17 10:57 30.186575 -97.678611 358 547ft 121kts
22-Apr-17 10:58 30.236853 -97.680142 356 3259ft 213kts
22-Apr-17 10:59 30.297727 -97.706836 332 6518ft 261kts
22-Apr-17 11:00 30.368984 -97.731857 340 10150ft 285kts
22-Apr-17 11:01 30.454243 -97.761070 340 12804ft 351kts
22-Apr-17 11:02 30.548491 -97.793372 340 16002ft 363kts
22-Apr-17 11:03 30.646834 -97.827105 340 19224ft 378kts
22-Apr-17 11:04 30.749336 -97.862337 338 22426ft 397kts
22-Apr-17 11:05 30.855465 -97.902079 338 23128ft 402kts
22-Apr-17 11:06 30.957842 -97.951228 329 23129ft 398kts
22-Apr-17 11:07 31.063865 -98.013889 330 23129ft 443kts
22-Apr-17 11:08 31.167162 -98.074767 330 23129ft 442kts
22-Apr-17 11:09 31.285428 -98.111619 347 23164ft 449kts
22-Apr-17 11:10 31.408490 -98.135038 353 23155ft 452kts
22-Apr-17 11:11 31.534084 -98.122001 4 22770ft 451kts
22-Apr-17 11:12 31.652023 -98.100141 14 21314ft 420kts
22-Apr-17 11:13 31.752196 -98.036017 26 19698ft 401kts
22-Apr-17 11:14 31.847077 -97.972048 25 18088ft 389kts
22-Apr-17 11:15 31.939729 -97.909828 25 16483ft 381kts
22-Apr-17 11:16 32.030447 -97.848890 26 14881ft 372kts
22-Apr-17 11:17 32.116366 -97.791185 26 13424ft 357kts
22-Apr-17 11:18 32.200440 -97.734901 26 12019ft 340kts
22-Apr-17 11:19 32.280994 -97.684756 23 10941ft 317kts
22-Apr-17 11:20 32.357181 -97.639756 23 10156ft 290kts
22-Apr-17 11:21 32.420136 -97.583139 42 9348ft 290kts
22-Apr-17 11:22 32.475933 -97.515302 58 8346ft 288kts
22-Apr-17 11:23 32.486700 -97.422203 84 7353ft 288kts
22-Apr-17 11:24 32.494852 -97.328366 83 5986ft 291kts
22-Apr-17 11:25 32.513170 -97.237475 63 5154ft 273kts
22-Apr-17 11:26 32.542075 -97.163159 65 5142ft 228kts
22-Apr-17 11:27 32.567939 -97.094727 64 4722ft 228kts
22-Apr-17 11:28 32.595802 -97.028461 38 3966ft 223kts
22-Apr-17 11:29 32.649692 -97.007702 354 3278ft 184kts
22-Apr-17 11:30 32.699088 -97.011244 0 3044ft 177kts
22-Apr-17 11:31 32.744315 -97.010647 358 2949ft 156kts
22-Apr-17 11:32 32.787665 -97.010403 358 2436ft 149kts
22-Apr-17 11:33 32.827167 -97.010167 358 1948ft 125kts
22-Apr-17 11:34 32.861773 -97.009886 357 946ft 128kts
22-Apr-17 11:35 32.888154 -97.010941 323 612ft 25kts
22-Apr-17 11:36 32.882134 -97.011747 179 612ft 30kts
22-Apr-17 11:37 32.878559 -97.015603 270 612ft 30kts
22-Apr-17 11:38 32.879051 -97.024438 280 612ft 21kts
22-Apr-17 11:39 32.879025 -97.033116 270 612ft 20kts
22-Apr-17 11:40 32.883769 -97.033725 1 612ft 21kts
22-Apr-17 11:41 32.890775 -97.033259 359 612ft 28kts
22-Apr-17 11:42 32.896384 -97.035014 282 612ft 0kts

Navigation Log

Ident Type
Flight plan parsing failed, navigation log unavailable